createdAt,value
2023-09-27T00:01:03.009Z,5.45
2023-09-27T00:03:31.252Z,5.25
2023-09-27T00:06:00.948Z,5.60
2023-09-27T00:08:29.344Z,6.05
2023-09-27T00:10:58.192Z,5.88
2023-09-27T00:13:26.516Z,5.70
2023-09-27T00:15:54.781Z,5.97
2023-09-27T00:18:23.059Z,6.07
2023-09-27T00:20:51.325Z,5.75
2023-09-27T00:23:20.983Z,6.03
2023-09-27T00:25:49.890Z,6.20
2023-09-27T00:28:18.190Z,6.00
2023-09-27T00:30:46.396Z,6.05
2023-09-27T00:33:14.658Z,5.97
2023-09-27T00:35:42.887Z,6.32
2023-09-27T00:38:11.804Z,6.95
2023-09-27T00:40:47.948Z,6.93
2023-09-27T00:43:29.109Z,7.60
2023-09-27T00:45:59.617Z,7.93
2023-09-27T00:48:28.091Z,7.03
2023-09-27T00:50:57.464Z,7.30
2023-09-27T00:53:26.515Z,6.70
2023-09-27T00:55:57.055Z,7.15
2023-09-27T00:58:26.398Z,6.68
2023-09-27T01:00:55.153Z,7.43
2023-09-27T01:03:23.400Z,6.80
2023-09-27T01:05:51.662Z,7.13
2023-09-27T01:08:20.003Z,7.55
2023-09-27T01:10:48.490Z,7.30
2023-09-27T01:13:18.353Z,7.03
2023-09-27T01:15:46.587Z,7.53
2023-09-27T01:18:14.857Z,7.88
2023-09-27T01:20:43.165Z,7.25
2023-09-27T01:23:12.739Z,7.18
2023-09-27T01:25:41.452Z,7.57
2023-09-27T01:28:10.843Z,7.00
2023-09-27T01:30:39.856Z,7.63
2023-09-27T01:33:09.359Z,8.23
2023-09-27T01:35:38.258Z,8.13
2023-09-27T01:38:06.823Z,7.53
2023-09-27T01:40:37.458Z,7.57
2023-09-27T01:43:06.165Z,7.13
2023-09-27T01:45:34.740Z,8.03
2023-09-27T01:48:03.413Z,8.37
2023-09-27T01:50:33.560Z,7.57
2023-09-27T01:53:02.432Z,7.93
2023-09-27T01:55:30.655Z,8.27
2023-09-27T01:58:00.232Z,8.30
2023-09-27T02:00:28.931Z,7.85
2023-09-27T02:02:57.962Z,8.43
2023-09-27T02:05:26.832Z,8.10
2023-09-27T02:07:55.251Z,8.02
2023-09-27T02:10:23.727Z,8.05
2023-09-27T02:12:51.947Z,8.10
2023-09-27T02:15:21.474Z,8.53
2023-09-27T02:17:49.921Z,8.17
2023-09-27T02:20:19.415Z,7.55
2023-09-27T02:22:48.993Z,8.40
2023-09-27T02:25:17.598Z,7.93
2023-09-27T02:27:46.130Z,8.67
2023-09-27T02:30:15.572Z,8.10
2023-09-27T02:32:46.416Z,8.17
2023-09-27T02:35:15.574Z,8.67
2023-09-27T02:37:45.479Z,8.97
2023-09-27T02:40:14.785Z,8.83
2023-09-27T02:42:43.992Z,9.00
2023-09-27T02:45:12.813Z,9.20
2023-09-27T02:47:41.530Z,9.17
2023-09-27T02:50:14.479Z,10.10
2023-09-27T02:52:44.637Z,9.17
2023-09-27T02:55:13.290Z,9.00
2023-09-27T02:57:43.065Z,9.30
2023-09-27T03:00:11.619Z,8.43
2023-09-27T03:02:39.976Z,9.57
2023-09-27T03:05:10.633Z,9.33
2023-09-27T03:07:40.408Z,9.63
2023-09-27T03:10:11.630Z,9.73
2023-09-27T03:12:40.826Z,10.47
2023-09-27T03:15:12.674Z,10.27
2023-09-27T03:17:42.184Z,9.37
2023-09-27T03:20:16.919Z,9.37
2023-09-27T03:22:46.543Z,10.00
2023-09-27T03:25:15.380Z,10.80
2023-09-27T03:27:43.675Z,10.47
2023-09-27T03:30:12.373Z,11.07
2023-09-27T03:32:40.591Z,11.43
2023-09-27T03:35:09.094Z,13.40
2023-09-27T03:37:37.362Z,11.87
2023-09-27T03:40:14.248Z,10.67
2023-09-27T03:42:43.974Z,11.93
2023-09-27T03:45:12.342Z,11.30
2023-09-27T03:47:41.040Z,11.47
2023-09-27T03:50:09.705Z,12.23
2023-09-27T03:52:37.972Z,12.57
2023-09-27T03:55:08.080Z,12.03
2023-09-27T03:57:36.320Z,11.37
2023-09-27T04:00:08.374Z,11.97
2023-09-27T04:02:36.687Z,11.30
2023-09-27T04:05:05.831Z,11.17
2023-09-27T04:07:34.158Z,11.97
2023-09-27T04:10:02.410Z,11.93
2023-09-27T04:12:32.149Z,12.17
2023-09-27T04:15:00.460Z,12.73
2023-09-27T04:17:29.041Z,12.53
2023-09-27T04:19:57.975Z,12.30
2023-09-27T04:22:26.334Z,12.10
2023-09-27T04:24:55.020Z,12.03
2023-09-27T04:27:23.189Z,11.97
2023-09-27T04:29:52.731Z,12.10
2023-09-27T04:32:21.005Z,12.13
2023-09-27T04:34:49.581Z,12.10
2023-09-27T04:37:17.816Z,12.33
2023-09-27T04:39:46.044Z,11.73
2023-09-27T04:42:14.740Z,11.83
2023-09-27T04:44:42.950Z,12.17
2023-09-27T04:47:12.665Z,11.73
2023-09-27T04:49:40.963Z,12.20
2023-09-27T04:52:09.168Z,11.10
2023-09-27T04:54:37.355Z,11.63
2023-09-27T04:57:05.595Z,11.87
2023-09-27T04:59:33.864Z,11.23
2023-09-27T05:02:02.967Z,11.87
2023-09-27T05:04:32.547Z,11.33
2023-09-27T05:07:00.738Z,12.10
2023-09-27T05:09:29.164Z,11.90
2023-09-27T05:11:57.382Z,12.20
2023-09-27T05:14:25.637Z,12.03
2023-09-27T05:16:53.876Z,10.90
2023-09-27T05:19:22.129Z,11.97
2023-09-27T05:21:51.694Z,11.80
2023-09-27T05:24:19.893Z,12.40
2023-09-27T05:26:48.231Z,11.70
2023-09-27T05:29:16.467Z,12.07
2023-09-27T05:31:46.971Z,12.03
2023-09-27T05:34:15.138Z,12.50
2023-09-27T05:36:43.599Z,12.53
2023-09-27T05:39:13.216Z,12.77
2023-09-27T05:41:41.390Z,13.10
2023-09-27T05:44:09.655Z,13.30
2023-09-27T05:46:38.769Z,13.57
2023-09-27T05:49:10.192Z,12.37
2023-09-27T05:51:38.621Z,12.93
2023-09-27T05:54:08.134Z,12.80
2023-09-27T05:56:39.155Z,12.47
2023-09-27T05:59:10.004Z,12.33
2023-09-27T06:01:38.631Z,13.47
2023-09-27T06:04:07.160Z,13.83
2023-09-27T06:06:37.560Z,13.47
2023-09-27T06:09:06.969Z,13.70
2023-09-27T06:11:35.216Z,14.77
2023-09-27T06:14:06.924Z,14.20
2023-09-27T06:16:35.209Z,14.80
2023-09-27T06:19:05.335Z,15.27
2023-09-27T06:21:34.086Z,16.10
2023-09-27T06:24:02.284Z,16.07
2023-09-27T06:26:30.766Z,17.00
2023-09-27T06:28:59.214Z,17.00
2023-09-27T06:31:30.268Z,17.63
2023-09-27T06:33:58.657Z,17.83
2023-09-27T06:36:30.894Z,17.03
2023-09-27T06:38:59.173Z,17.63
2023-09-27T06:41:27.446Z,18.03
2023-09-27T06:43:56.023Z,18.40
2023-09-27T06:46:27.810Z,19.93
2023-09-27T06:49:00.211Z,18.47
2023-09-27T06:51:28.478Z,18.90
2023-09-27T06:53:56.729Z,19.57
2023-09-27T06:56:25.238Z,18.97
2023-09-27T06:58:53.657Z,19.30
2023-09-27T07:01:23.141Z,19.07
2023-09-27T07:03:51.570Z,17.45
2023-09-27T07:06:21.259Z,18.30
2023-09-27T07:08:53.816Z,18.93
2023-09-27T07:11:22.575Z,19.97
2023-09-27T07:13:50.882Z,18.73
2023-09-27T07:16:27.112Z,19.03
2023-09-27T07:18:55.713Z,19.80
2023-09-27T07:21:26.262Z,19.90
2023-09-27T07:23:55.034Z,18.77
2023-09-27T07:26:23.535Z,19.48
2023-09-27T07:28:52.185Z,19.97
2023-09-27T07:31:21.241Z,20.20
2023-09-27T07:33:53.551Z,20.30
2023-09-27T07:36:23.518Z,20.57
2023-09-27T07:38:53.723Z,21.07
2023-09-27T07:41:22.176Z,21.27
2023-09-27T07:43:51.839Z,21.27
2023-09-27T07:46:20.740Z,22.48
2023-09-27T07:48:48.964Z,23.03
2023-09-27T07:51:19.296Z,23.33
2023-09-27T07:53:47.727Z,23.00
2023-09-27T07:56:22.053Z,24.77
2023-09-27T07:58:53.212Z,22.57
2023-09-27T08:01:22.111Z,25.05
2023-09-27T08:03:53.106Z,22.58
2023-09-27T08:06:23.083Z,22.77
2023-09-27T08:08:53.107Z,23.27
2023-09-27T08:11:23.040Z,23.80
2023-09-27T08:13:51.260Z,21.77
2023-09-27T08:16:19.492Z,22.52
2023-09-27T08:18:51.223Z,23.40
2023-09-27T08:21:20.060Z,22.40
2023-09-27T08:23:48.287Z,24.17
2023-09-27T08:26:16.562Z,23.58
2023-09-27T08:28:46.090Z,23.52
2023-09-27T08:31:14.301Z,23.05
2023-09-27T08:33:42.543Z,22.70
2023-09-27T08:36:10.754Z,22.88
2023-09-27T08:38:39.241Z,22.80
2023-09-27T08:41:07.813Z,22.70
2023-09-27T08:43:36.262Z,22.52
2023-09-27T08:46:06.730Z,23.05
2023-09-27T08:48:38.106Z,23.35
2023-09-27T08:51:07.589Z,22.95
2023-09-27T08:53:39.984Z,23.20
2023-09-27T08:56:09.192Z,23.60
2023-09-27T08:58:38.359Z,23.52
2023-09-27T09:01:09.455Z,23.38
2023-09-27T09:03:39.236Z,24.38
2023-09-27T09:06:12.132Z,23.77
2023-09-27T09:08:54.930Z,24.75
2023-09-27T09:11:24.403Z,22.55
2023-09-27T09:14:01.187Z,21.02
2023-09-27T09:16:41.009Z,22.08
2023-09-27T09:19:41.099Z,20.70
2023-09-27T09:22:12.696Z,21.50
2023-09-27T09:24:43.085Z,20.55
2023-09-27T09:27:14.517Z,20.50
2023-09-27T09:29:48.653Z,19.67
2023-09-27T09:32:19.895Z,21.58
2023-09-27T09:34:48.037Z,20.27
2023-09-27T09:37:20.557Z,19.57
2023-09-27T09:39:49.287Z,19.35
2023-09-27T09:42:31.240Z,19.33
2023-09-27T09:45:06.940Z,18.38
2023-09-27T09:47:37.393Z,18.08
2023-09-27T09:50:07.317Z,18.87
2023-09-27T09:52:36.888Z,18.13
2023-09-27T09:55:17.834Z,18.43
2023-09-27T09:57:54.347Z,18.27
2023-09-27T10:00:27.581Z,19.02
2023-09-27T10:03:04.077Z,18.63
2023-09-27T10:05:37.606Z,18.45
2023-09-27T10:08:06.292Z,19.52
2023-09-27T10:10:35.039Z,20.15
2023-09-27T10:13:04.164Z,19.43
2023-09-27T10:15:34.715Z,19.20
2023-09-27T10:18:21.561Z,19.85
2023-09-27T10:21:05.839Z,17.17
2023-09-27T10:23:37.908Z,18.02
2023-09-27T10:26:18.989Z,16.85
2023-09-27T10:29:07.558Z,16.95
2023-09-27T10:31:37.593Z,11.37
2023-09-27T10:34:06.164Z,14.55
2023-09-27T10:36:36.315Z,13.77
2023-09-27T10:39:07.501Z,14.20
2023-09-27T10:41:44.752Z,13.13
2023-09-27T10:44:13.763Z,11.50
2023-09-27T10:46:45.141Z,11.80
2023-09-27T10:49:14.141Z,10.35
2023-09-27T10:51:52.900Z,10.30
2023-09-27T10:54:25.926Z,10.20
2023-09-27T10:56:56.886Z,9.35
2023-09-27T10:59:28.547Z,9.45
2023-09-27T11:01:56.917Z,9.60
2023-09-27T11:04:25.829Z,9.20
2023-09-27T11:06:57.159Z,8.40
2023-09-27T11:09:25.537Z,8.40
2023-09-27T11:11:55.237Z,8.85
2023-09-27T11:14:33.589Z,7.72
2023-09-27T11:17:16.487Z,7.53
2023-09-27T11:19:44.748Z,8.02
2023-09-27T11:22:14.306Z,8.05
2023-09-27T11:24:42.877Z,7.55
2023-09-27T11:27:12.439Z,7.70
2023-09-27T11:29:40.724Z,7.53
2023-09-27T11:32:09.058Z,7.60
2023-09-27T11:34:37.262Z,7.13
2023-09-27T11:37:06.945Z,6.88
2023-09-27T11:39:51.718Z,5.97
2023-09-27T11:42:24.389Z,6.82
2023-09-27T11:45:04.893Z,5.25
2023-09-27T11:47:33.312Z,6.78
2023-09-27T11:50:01.566Z,6.10
2023-09-27T11:52:29.781Z,7.00
2023-09-27T11:54:57.988Z,6.82
2023-09-27T11:57:27.541Z,7.07
2023-09-27T11:59:55.779Z,6.63
2023-09-27T12:02:28.154Z,7.38
2023-09-27T12:04:59.258Z,7.85
2023-09-27T12:07:28.463Z,7.22
2023-09-27T12:09:56.998Z,7.38
2023-09-27T12:12:25.406Z,7.20
2023-09-27T12:14:56.440Z,6.20
2023-09-27T12:17:24.993Z,6.80
2023-09-27T12:19:54.778Z,7.50
2023-09-27T12:22:23.124Z,6.68
2023-09-27T12:24:51.450Z,6.40
2023-09-27T12:27:19.652Z,6.30
2023-09-27T12:29:47.977Z,6.35
2023-09-27T12:32:17.550Z,5.60
2023-09-27T12:34:45.785Z,5.35
2023-09-27T12:37:13.956Z,4.65
2023-09-27T12:39:42.291Z,4.47
2023-09-27T12:42:10.600Z,3.30
2023-09-27T12:44:38.900Z,3.20
2023-09-27T12:47:07.161Z,3.88
2023-09-27T12:49:36.813Z,3.60
2023-09-27T12:52:05.285Z,3.10
2023-09-27T12:54:33.456Z,3.58
2023-09-27T12:57:01.780Z,3.65
2023-09-27T12:59:30.062Z,3.63
2023-09-27T13:01:58.610Z,3.70
2023-09-27T13:04:26.857Z,4.10
2023-09-27T13:06:57.171Z,4.35
2023-09-27T13:09:25.389Z,4.13
2023-09-27T13:11:53.663Z,3.80
2023-09-27T13:14:21.985Z,4.30
2023-09-27T13:16:50.226Z,3.42
2023-09-27T13:19:18.649Z,4.18
2023-09-27T13:21:47.169Z,3.90
2023-09-27T13:24:16.806Z,3.75
2023-09-27T13:26:45.208Z,4.20
2023-09-27T13:29:13.506Z,4.22
2023-09-27T13:31:41.815Z,3.67
2023-09-27T13:34:11.968Z,3.70
2023-09-27T13:36:41.527Z,3.60
2023-09-27T13:39:15.471Z,3.63
2023-09-27T13:41:47.318Z,3.97
2023-09-27T13:44:16.079Z,3.90
2023-09-27T13:46:45.400Z,3.83
2023-09-27T13:49:13.616Z,3.55
2023-09-27T13:51:42.839Z,3.40
2023-09-27T13:54:12.975Z,3.47
2023-09-27T13:56:41.505Z,3.13
2023-09-27T13:59:11.073Z,3.10
